YMML

Melbourne International Airport

Melbourne, Australia
TAF COR YMML 221726Z 2218/2324 01022G40KT 9999 -SHRA NSC FM230600 36025G42KT 9999 -SHRA SCT045 FM231400 32020G36KT 9999 -SHRA SCT045 FM231700 34016G28KT CAVOK INTER 2307/2310 4000 SHRA BKN045
Issued Valid From Valid To
Jul-22 @ 17:26 UTC
(3 hours ago)
Jul-22 @ 18:00 UTC
(2 hours ago)
Jul-24 @ 00:00 UTC
(-1 days ago)
Jul-22 @ 18:00 to Jul-23 @ 06:00
TAF COR YMML 221726Z 2218/2324 01022G40KT 9999 -SHRA NSC
Wind Visibility Clouds Conditions
10° at 22 knots
 Gusting to 40 knots
10,000+ meters
  • No significant clouds
  • Light Rain
From Jul-23 @ 06:00 to Jul-23 @ 14:00
FM230600 36025G42KT 9999 -SHRA SCT045
Wind Visibility Clouds Conditions
360° at 25 knots
 Gusting to 42 knots
10,000+ meters
  • Scattered at 4,500' AGL
  • Light Rain
Temporary Jul-23 @ 07:00 to Jul-23 @ 10:00
INTER 2307/2310 4000 SHRA BKN045
Visibility Clouds Conditions
4,007 meters
  • Broken at 4,500' AGL
  • Rain
From Jul-23 @ 14:00 to Jul-23 @ 17:00
FM231400 32020G36KT 9999 -SHRA SCT045
Wind Visibility Clouds Conditions
320° at 20 knots
 Gusting to 36 knots
10,000+ meters
  • Scattered at 4,500' AGL
  • Light Rain
From Jul-23 @ 17:00 to Jul-24 @ 00:00
FM231700 34016G28KT CAVOK
Wind Visibility Clouds Conditions
340° at 16 knots
 Gusting to 28 knots
10,000+ meters
  • No significant clouds
TAF COR YMML 221726Z 2218/2324 01022G40KT 9999 -SHRA NSC FM230600 36025G42KT 9999 -SHRA SCT045 FM231400 32020G36KT 9999 -SHRA SCT045 FM231700 34016G28KT CAVOK INTER 2307/2310 4000 SHRA BKN045
Issued Jul-22 @ 17:26 UTC
(3 hours ago)
Valid From Jul-22 @ 18:00 UTC
(2 hours ago)
Valid To Jul-24 @ 00:00 UTC
(-1 days ago)
Jul-22 @ 18:00 - Jul-23 @ 06:00
Wind Visibility
10° at 22 knots
 Gusting to 40 knots
10,000+ meters
Clouds
  • No significant clouds
Conditions
  • Light Rain
From Jul-23 @ 06:00 - Jul-23 @ 14:00
Wind Visibility
360° at 25 knots
 Gusting to 42 knots
10,000+ meters
Clouds
  • Scattered at 4,500' AGL
Conditions
  • Light Rain
Temporary Jul-23 @ 07:00 - Jul-23 @ 10:00
Clouds
  • Broken at 4,500' AGL
Conditions
  • Rain
From Jul-23 @ 14:00 - Jul-23 @ 17:00
Wind Visibility
320° at 20 knots
 Gusting to 36 knots
10,000+ meters
Clouds
  • Scattered at 4,500' AGL
Conditions
  • Light Rain
From Jul-23 @ 17:00 - Jul-24 @ 00:00
Wind Visibility
340° at 16 knots
 Gusting to 28 knots
10,000+ meters
Clouds
  • No significant clouds
Conditions